Ingenio Santa Ana, Argentina
Current Conditions -  °F | °C
As of 7:00 PM on Tuesday 27 Jan 2015 (Local Time) from SANT Reporting Station
Few Clouds Few Clouds  
Wind Chill: 90°   Ceiling: Unl
Heat Index: 96°   Visibility: 6mi
Dew Point: 72°   Wind: 6mph
Humidity: 55%   Direction: 140°SE
Pressure: 29.68"   Gusts: NA
Location:  27.47°S, 65.68°W
Report Text: SANT 272200Z 14005KT 9999 FEW040 FEW045CB32/22 Q1005
Loading
Personal Weather Stations






























Interactive Weather Map New forecast layout! Learn more

10-Day Weather Forecast

Advertisements
Track Severe Weather on mobile